Time;durP1;ratioP1;P1;durP2;ratioP2;P2;SDS_P1;SDS_P2;PMS_P1;PMS_P2;Temp;Humidity;BMP_temperature;BMP_pressure;BME280_temperature;BME280_humidity;BME280_pressure;Samples;Min_cycle;Max_cycle;Signal;HPM_P1;HPM_P2
2024/04/01 00:00:02;;;;;;;26.95;17.13;;;;;;;;;;6157510;23;20025;-76
2024/04/01 00:02:28;;;;;;;25.15;16.83;;;;;;;;;;6175225;23;20667;-76
2024/04/01 00:04:54;;;;;;;22.20;16.15;;;;;;;;;;6182247;23;20475;-75
2024/04/01 00:07:19;;;;;;;24.88;17.13;;;;;;;;;;6171043;23;20083;-75
2024/04/01 00:09:45;;;;;;;25.90;16.70;;;;;;;;;;6177853;23;20021;-75
2024/04/01 00:12:12;;;;;;;23.50;17.27;;;;;;;;;;6181410;23;20032;-75
2024/04/01 00:14:37;;;;;;;27.17;17.48;;;;;;;;;;6175103;23;20071;-75
2024/04/01 00:17:03;;;;;;;21.20;16.17;;;;;;;;;;6157217;23;20107;-75
2024/04/01 00:19:28;;;;;;;24.05;16.70;;;;;;;;;;6151865;23;20683;-76
2024/04/01 00:21:54;;;;;;;25.02;18.33;;;;;;;;;;6178572;23;20025;-75
2024/04/01 00:24:19;;;;;;;25.90;17.85;;;;;;;;;;6174453;23;20100;-75
2024/04/01 00:26:44;;;;;;;23.15;16.83;;;;;;;;;;6177318;23;20522;-75
2024/04/01 00:29:10;;;;;;;24.90;17.85;;;;;;;;;;6182351;23;20075;-75
2024/04/01 00:31:35;;;;;;;27.38;19.48;;;;;;;;;;6174040;23;20100;-76
2024/04/01 00:34:01;;;;;;;29.55;19.35;;;;;;;;;;6181217;23;20031;-76
2024/04/01 00:36:26;;;;;;;24.83;18.88;;;;;;;;;;6166819;23;20102;-76
2024/04/01 00:38:55;;;;;;;25.48;17.67;;;;;;;;;;6177068;23;20087;-76
2024/04/01 00:41:21;;;;;;;19.73;16.67;;;;;;;;;;6155580;23;20596;-75
2024/04/01 00:43:47;;;;;;;20.88;16.73;;;;;;;;;;6172520;23;20024;-76
2024/04/01 00:46:12;;;;;;;21.33;17.80;;;;;;;;;;6181312;23;20027;-77
2024/04/01 00:48:37;;;;;;;21.55;17.52;;;;;;;;;;6172241;23;20021;-76
2024/04/01 00:51:04;;;;;;;18.10;15.23;;;;;;;;;;6179792;23;20117;-75
2024/04/01 00:53:29;;;;;;;22.23;17.10;;;;;;;;;;6179884;23;20020;-75
2024/04/01 00:55:55;;;;;;;19.40;15.82;;;;;;;;;;6173196;23;20491;-75
2024/04/01 00:58:20;;;;;;;24.77;17.35;;;;;;;;;;6180838;23;20024;-76
2024/04/01 01:00:48;;;;;;;21.80;16.50;;;;;;;;;;6168295;23;20481;-76
2024/04/01 01:03:14;;;;;;;22.75;18.15;;;;;;;;;;6176543;23;20778;-74
2024/04/01 01:05:39;;;;;;;21.33;15.68;;;;;;;;;;6173873;23;20025;-74
2024/04/01 01:08:05;;;;;;;21.90;16.55;;;;;;;;;;6155469;23;20021;-74
2024/04/01 01:10:32;;;;;;;20.10;15.23;;;;;;;;;;6180315;23;20020;-74
2024/04/01 01:12:57;;;;;;;16.83;14.02;;;;;;;;;;6173445;23;20024;-74
2024/04/01 01:15:23;;;;;;;20.45;13.98;;;;;;;;;;6174834;23;20533;-75
2024/04/01 01:17:49;;;;;;;16.95;14.15;;;;;;;;;;6166204;23;20013;-76
2024/04/01 01:20:14;;;;;;;18.98;14.20;;;;;;;;;;6154510;23;20017;-76
2024/04/01 01:22:40;;;;;;;17.15;12.98;;;;;;;;;;6178626;23;20078;-76
2024/04/01 01:25:09;;;;;;;21.90;13.98;;;;;;;;;;6172285;23;20363;-77
2024/04/01 01:27:39;;;;;;;15.63;11.68;;;;;;;;;;6154449;23;20452;-77
2024/04/01 01:30:14;;;;;;;16.75;10.77;;;;;;;;;;6167459;23;20024;-73
2024/04/01 01:32:50;;;;;;;13.73;10.15;;;;;;;;;;6176756;23;20029;-74
2024/04/01 01:35:20;;;;;;;17.77;10.68;;;;;;;;;;6126410;23;1091420;-76
2024/04/01 01:37:46;;;;;;;14.63;9.63;;;;;;;;;;6178220;23;20033;-75
2024/04/01 01:40:11;;;;;;;16.35;9.25;;;;;;;;;;6180933;23;20460;-76
2024/04/01 01:42:36;;;;;;;17.48;9.43;;;;;;;;;;6168083;23;20039;-81
2024/04/01 01:45:03;;;;;;;14.15;9.23;;;;;;;;;;6178967;23;20028;-81
2024/04/01 01:47:30;;;;;;;11.18;8.50;;;;;;;;;;6176306;23;20028;-78
2024/04/01 01:49:56;;;;;;;14.77;7.97;;;;;;;;;;6182097;23;20024;-82
2024/04/01 01:52:21;;;;;;;13.57;8.35;;;;;;;;;;6157040;23;20024;-79
2024/04/01 01:54:47;;;;;;;15.38;7.95;;;;;;;;;;6175304;23;20013;-80
2024/04/01 01:57:12;;;;;;;11.80;7.93;;;;;;;;;;6178222;23;20060;-78
2024/04/01 01:59:38;;;;;;;13.88;8.50;;;;;;;;;;6175443;23;20677;-79
2024/04/01 02:02:03;;;;;;;11.10;8.55;;;;;;;;;;6183633;23;20078;-82
2024/04/01 02:04:28;;;;;;;14.38;8.63;;;;;;;;;;6177049;23;20028;-82
2024/04/01 02:06:54;;;;;;;11.27;8.18;;;;;;;;;;6182118;23;20104;-83
2024/04/01 02:09:19;;;;;;;16.90;9.00;;;;;;;;;;6156356;23;20024;-80
2024/04/01 02:11:45;;;;;;;15.00;8.85;;;;;;;;;;6143843;23;20024;-77
2024/04/01 02:14:10;;;;;;;12.68;8.45;;;;;;;;;;6180110;23;20517;-78
2024/04/01 02:16:36;;;;;;;11.48;7.90;;;;;;;;;;6149285;23;20479;-78
2024/04/01 02:19:01;;;;;;;11.40;8.10;;;;;;;;;;6180017;23;20031;-80
2024/04/01 02:21:27;;;;;;;12.20;8.52;;;;;;;;;;6184831;23;20047;-80
2024/04/01 02:23:52;;;;;;;10.68;6.53;;;;;;;;;;6147874;23;20078;-81
2024/04/01 02:26:18;;;;;;;9.60;6.93;;;;;;;;;;6177943;23;20028;-79
2024/04/01 02:28:43;;;;;;;11.35;7.80;;;;;;;;;;6149598;23;20099;-82
2024/04/01 02:31:08;;;;;;;12.07;7.15;;;;;;;;;;6182787;23;20138;-75
2024/04/01 02:33:34;;;;;;;11.75;6.57;;;;;;;;;;6181920;23;20031;-80
2024/04/01 02:36:00;;;;;;;11.07;6.65;;;;;;;;;;6173651;23;20112;-81
2024/04/01 02:38:25;;;;;;;11.73;6.68;;;;;;;;;;6154361;23;20103;-76
2024/04/01 02:40:50;;;;;;;10.40;6.95;;;;;;;;;;6172485;23;20056;-77
2024/04/01 02:43:17;;;;;;;7.22;6.15;;;;;;;;;;6183227;23;20060;-80
2024/04/01 02:45:44;;;;;;;9.50;5.35;;;;;;;;;;6153159;23;20027;-79
2024/04/01 02:48:09;;;;;;;12.10;5.90;;;;;;;;;;6182522;23;20048;-79
2024/04/01 02:50:35;;;;;;;8.38;5.55;;;;;;;;;;6182697;23;20024;-80
2024/04/01 02:53:01;;;;;;;8.18;5.47;;;;;;;;;;6170244;23;20535;-79
2024/04/01 02:55:26;;;;;;;10.27;5.68;;;;;;;;;;6176485;23;20407;-79
2024/04/01 02:57:52;;;;;;;9.50;5.03;;;;;;;;;;6151310;23;20020;-79
2024/04/01 03:00:17;;;;;;;7.03;4.70;;;;;;;;;;6182089;23;20390;-80
2024/04/01 03:02:44;;;;;;;10.45;5.18;;;;;;;;;;6181906;23;20245;-78
2024/04/01 03:05:10;;;;;;;8.77;4.57;;;;;;;;;;6199099;23;20025;-78
2024/04/01 03:07:35;;;;;;;11.07;5.15;;;;;;;;;;6151217;23;20044;-79
2024/04/01 03:10:01;;;;;;;8.50;4.30;;;;;;;;;;6173183;23;20328;-78
2024/04/01 03:12:26;;;;;;;6.65;3.92;;;;;;;;;;6155956;23;20407;-79
2024/04/01 03:14:52;;;;;;;6.50;4.43;;;;;;;;;;6180989;23;20024;-78
2024/04/01 03:17:18;;;;;;;5.88;4.28;;;;;;;;;;6175849;23;20017;-79
2024/04/01 03:19:44;;;;;;;8.95;4.53;;;;;;;;;;6156664;23;20024;-78
2024/04/01 03:22:09;;;;;;;8.73;4.07;;;;;;;;;;6148403;23;20040;-79
2024/04/01 03:24:35;;;;;;;11.10;4.55;;;;;;;;;;6181048;23;20029;-78
2024/04/01 03:27:00;;;;;;;9.30;4.13;;;;;;;;;;6152913;23;20032;-79
2024/04/01 03:29:25;;;;;;;6.70;4.35;;;;;;;;;;6158016;23;20024;-80
2024/04/01 03:31:51;;;;;;;7.32;4.20;;;;;;;;;;6183697;23;20078;-79
2024/04/01 03:34:16;;;;;;;6.95;4.35;;;;;;;;;;6148944;23;20025;-79
2024/04/01 03:36:42;;;;;;;10.35;4.57;;;;;;;;;;6152089;23;20474;-79
2024/04/01 03:39:08;;;;;;;8.65;4.15;;;;;;;;;;6151173;23;20024;-79
2024/04/01 03:41:33;;;;;;;7.28;3.83;;;;;;;;;;6182226;23;20695;-77
2024/04/01 03:44:00;;;;;;;6.50;4.50;;;;;;;;;;6180190;23;20071;-77
2024/04/01 03:46:25;;;;;;;6.25;3.75;;;;;;;;;;6175257;23;20087;-77
2024/04/01 03:48:52;;;;;;;4.78;3.70;;;;;;;;;;6152255;23;20028;-76
2024/04/01 03:51:17;;;;;;;5.30;3.88;;;;;;;;;;6170419;23;20025;-76
2024/04/01 03:53:42;;;;;;;8.30;3.55;;;;;;;;;;6179416;23;20032;-77
2024/04/01 03:56:09;;;;;;;8.27;4.10;;;;;;;;;;6182215;23;20027;-76
2024/04/01 03:58:35;;;;;;;9.35;4.30;;;;;;;;;;6173666;23;20021;-75
2024/04/01 04:01:01;;;;;;;11.75;4.15;;;;;;;;;;6181995;23;20091;-75
2024/04/01 04:03:26;;;;;;;6.65;4.05;;;;;;;;;;6175440;23;20016;-77
2024/04/01 04:05:51;;;;;;;9.32;4.18;;;;;;;;;;6179832;23;20021;-77
2024/04/01 04:08:18;;;;;;;7.03;3.80;;;;;;;;;;6180963;23;20027;-78
2024/04/01 04:10:46;;;;;;;5.93;3.60;;;;;;;;;;6154888;23;20046;-77
2024/04/01 04:13:12;;;;;;;4.30;3.40;;;;;;;;;;6183857;23;20024;-77
2024/04/01 04:15:37;;;;;;;6.30;3.90;;;;;;;;;;6149962;23;20075;-77
2024/04/01 04:18:03;;;;;;;8.25;4.05;;;;;;;;;;6152823;23;20031;-77
2024/04/01 04:20:29;;;;;;;7.90;4.60;;;;;;;;;;6150468;23;20024;-77
2024/04/01 04:22:55;;;;;;;8.90;4.55;;;;;;;;;;6156685;23;20107;-77
2024/04/01 04:25:21;;;;;;;7.43;4.63;;;;;;;;;;6157209;23;20106;-77
2024/04/01 04:27:47;;;;;;;7.82;4.03;;;;;;;;;;6176367;23;20605;-77
2024/04/01 04:30:13;;;;;;;11.18;4.35;;;;;;;;;;6179742;23;20021;-77
2024/04/01 04:32:40;;;;;;;8.82;4.68;;;;;;;;;;6171531;23;20423;-77
2024/04/01 04:35:08;;;;;;;5.30;4.25;;;;;;;;;;6182368;23;20025;-77
2024/04/01 04:37:34;;;;;;;6.22;4.30;;;;;;;;;;6182605;23;20024;-77
2024/04/01 04:40:00;;;;;;;9.82;4.57;;;;;;;;;;6151698;23;20021;-77
2024/04/01 04:42:25;;;;;;;10.30;4.40;;;;;;;;;;6157560;23;20027;-77
2024/04/01 04:44:51;;;;;;;8.55;4.03;;;;;;;;;;6147095;23;20024;-77
2024/04/01 04:47:16;;;;;;;7.00;4.50;;;;;;;;;;6178691;23;20028;-76
2024/04/01 04:49:42;;;;;;;5.70;3.97;;;;;;;;;;6175063;23;20024;-78
2024/04/01 04:52:07;;;;;;;8.40;4.10;;;;;;;;;;6182344;23;20024;-78
2024/04/01 04:54:33;;;;;;;6.57;4.10;;;;;;;;;;6182642;23;20024;-81
2024/04/01 04:56:58;;;;;;;6.72;3.83;;;;;;;;;;6176089;23;20017;-80
2024/04/01 04:59:24;;;;;;;7.88;4.47;;;;;;;;;;6179055;23;20024;-77
2024/04/01 05:01:49;;;;;;;6.38;3.80;;;;;;;;;;6145760;23;20075;-78
2024/04/01 05:04:15;;;;;;;6.80;4.05;;;;;;;;;;6183292;23;20116;-77
2024/04/01 05:06:42;;;;;;;5.68;3.72;;;;;;;;;;6181766;23;20028;-78
2024/04/01 05:09:08;;;;;;;6.22;4.07;;;;;;;;;;6175514;23;20562;-77
2024/04/01 05:11:34;;;;;;;5.40;4.25;;;;;;;;;;6181379;23;20037;-77
2024/04/01 05:14:00;;;;;;;7.78;4.45;;;;;;;;;;6170444;23;20060;-77
2024/04/01 05:16:25;;;;;;;8.30;4.18;;;;;;;;;;6177805;23;20534;-78
2024/04/01 05:18:51;;;;;;;5.88;3.83;;;;;;;;;;6179370;23;20029;-78
2024/04/01 05:21:17;;;;;;;8.10;4.20;;;;;;;;;;6154218;23;20051;-77
2024/04/01 05:23:43;;;;;;;6.95;4.07;;;;;;;;;;6180713;23;20035;-77
2024/04/01 05:26:08;;;;;;;5.93;3.92;;;;;;;;;;6175993;23;20024;-77
2024/04/01 05:28:34;;;;;;;6.28;4.40;;;;;;;;;;6177333;23;20028;-78
2024/04/01 05:31:00;;;;;;;6.78;4.35;;;;;;;;;;6171982;23;20031;-77
2024/04/01 05:33:33;;;;;;;7.00;4.22;;;;;;;;;;6182194;23;20025;-77
2024/04/01 05:35:59;;;;;;;6.30;4.30;;;;;;;;;;6182502;23;20274;-77
2024/04/01 05:38:25;;;;;;;7.57;4.30;;;;;;;;;;6150571;23;20494;-77
2024/04/01 05:40:50;;;;;;;8.65;4.13;;;;;;;;;;6179939;23;20040;-78
2024/04/01 05:43:15;;;;;;;7.80;4.00;;;;;;;;;;6169832;23;20024;-77
2024/04/01 05:45:41;;;;;;;6.25;4.10;;;;;;;;;;6180500;23;20075;-77
2024/04/01 05:48:06;;;;;;;9.63;6.40;;;;;;;;;;6157694;23;20024;-77
2024/04/01 05:50:32;;;;;;;8.48;6.55;;;;;;;;;;6176000;23;20399;-77
2024/04/01 05:52:57;;;;;;;8.82;5.88;;;;;;;;;;6180377;23;20391;-76
2024/04/01 05:55:23;;;;;;;5.93;4.68;;;;;;;;;;6146006;23;20360;-77
2024/04/01 05:57:48;;;;;;;6.18;4.28;;;;;;;;;;6176023;23;20359;-76
2024/04/01 06:00:14;;;;;;;6.53;4.20;;;;;;;;;;6178029;23;20056;-78
2024/04/01 06:02:39;;;;;;;6.53;4.40;;;;;;;;;;6178384;23;20064;-79
2024/04/01 06:05:05;;;;;;;6.95;4.28;;;;;;;;;;6157041;23;20052;-78
2024/04/01 06:07:31;;;;;;;7.03;4.20;;;;;;;;;;6176896;23;20090;-77
2024/04/01 06:10:00;;;;;;;6.47;4.40;;;;;;;;;;6153188;23;20108;-79
2024/04/01 06:12:26;;;;;;;6.43;4.20;;;;;;;;;;6173118;23;20513;-79
2024/04/01 06:14:51;;;;;;;5.35;4.18;;;;;;;;;;6157713;23;20028;-78
2024/04/01 06:17:17;;;;;;;7.03;3.92;;;;;;;;;;6183321;23;20020;-78
2024/04/01 06:19:42;;;;;;;6.15;3.75;;;;;;;;;;6151269;23;20020;-79
2024/04/01 06:22:09;;;;;;;5.65;3.72;;;;;;;;;;6182172;23;20021;-78
2024/04/01 06:24:34;;;;;;;5.85;4.30;;;;;;;;;;6145862;23;20086;-78
2024/04/01 06:27:00;;;;;;;7.70;4.10;;;;;;;;;;6153636;23;20020;-80
2024/04/01 06:29:25;;;;;;;6.05;4.40;;;;;;;;;;6155566;23;20021;-79
2024/04/01 06:31:51;;;;;;;13.05;9.25;;;;;;;;;;6178845;23;20017;-80
2024/04/01 06:34:16;;;;;;;11.80;8.38;;;;;;;;;;6182449;23;20044;-79
2024/04/01 06:36:41;;;;;;;8.05;5.28;;;;;;;;;;6174760;23;20028;-78
2024/04/01 06:39:10;;;;;;;8.68;4.82;;;;;;;;;;6154094;23;20029;-79
2024/04/01 06:41:35;;;;;;;;;;;;;;;;;;6146842;23;20084;-79
2024/04/01 06:44:01;;;;;;;7.70;4.65;;;;;;;;;;6182367;23;19920;-79
2024/04/01 06:46:26;;;;;;;6.97;4.10;;;;;;;;;;6183520;23;20021;-79
2024/04/01 06:48:52;;;;;;;11.43;4.63;;;;;;;;;;6175859;23;20395;-79
2024/04/01 06:51:17;;;;;;;6.47;4.03;;;;;;;;;;6157786;23;20021;-78
2024/04/01 06:53:43;;;;;;;6.32;3.70;;;;;;;;;;6145203;23;20078;-78
2024/04/01 06:56:08;;;;;;;5.60;2.90;;;;;;;;;;6179060;23;20025;-81
2024/04/01 06:58:33;;;;;;;5.15;3.00;;;;;;;;;;6158182;23;20083;-78
2024/04/01 07:00:59;;;;;;;5.28;2.90;;;;;;;;;;6176730;23;20024;-80
2024/04/01 07:03:24;;;;;;;5.40;2.47;;;;;;;;;;6158729;23;20071;-79
2024/04/01 07:05:50;;;;;;;4.15;2.53;;;;;;;;;;6151641;23;20024;-80
2024/04/01 07:08:15;;;;;;;3.83;2.53;;;;;;;;;;6179805;23;20105;-79
2024/04/01 07:10:40;;;;;;;4.85;2.70;;;;;;;;;;6173224;23;20021;-79
2024/04/01 07:13:06;;;;;;;4.97;2.53;;;;;;;;;;6183704;23;20043;-82
2024/04/01 07:15:32;;;;;;;4.90;2.78;;;;;;;;;;6160494;23;20027;-79
2024/04/01 07:17:57;;;;;;;4.63;2.47;;;;;;;;;;6178999;23;20021;-80
2024/04/01 07:20:23;;;;;;;5.80;2.58;;;;;;;;;;6159078;23;20025;-79
2024/04/01 07:22:48;;;;;;;5.75;2.78;;;;;;;;;;6174374;23;20028;-82
2024/04/01 07:25:14;;;;;;;4.85;2.92;;;;;;;;;;6156305;23;20462;-81
2024/04/01 07:27:39;;;;;;;3.35;2.80;;;;;;;;;;6160641;23;20119;-83
2024/04/01 07:30:05;;;;;;;3.67;2.70;;;;;;;;;;6153620;23;20031;-83
2024/04/01 07:32:34;;;;;;;8.30;2.78;;;;;;;;;;6184974;23;20479;-82
2024/04/01 07:35:00;;;;;;;3.85;2.90;;;;;;;;;;6153589;23;20460;-81
2024/04/01 07:37:26;;;;;;;4.85;2.75;;;;;;;;;;6179965;23;20098;-83
2024/04/01 07:39:53;;;;;;;7.05;2.97;;;;;;;;;;6185543;23;20108;-82
2024/04/01 07:42:18;;;;;;;7.53;2.88;;;;;;;;;;6179010;23;20032;-83
2024/04/01 07:44:44;;;;;;;5.07;3.40;;;;;;;;;;6186817;23;20033;-82
2024/04/01 07:47:09;;;;;;;5.57;3.25;;;;;;;;;;6179226;23;20021;-82
2024/04/01 07:49:35;;;;;;;4.50;3.17;;;;;;;;;;6182896;23;20031;-81
2024/04/01 07:52:01;;;;;;;6.68;3.10;;;;;;;;;;6150145;23;20024;-79
2024/04/01 07:54:28;;;;;;;4.15;3.03;;;;;;;;;;6161470;23;20056;-82
2024/04/01 07:56:54;;;;;;;3.85;3.15;;;;;;;;;;6161285;23;20024;-82
2024/04/01 07:59:19;;;;;;;6.45;3.70;;;;;;;;;;6156264;23;20028;-81
2024/04/01 08:01:45;;;;;;;5.75;3.53;;;;;;;;;;6162162;23;20025;-82
2024/04/01 08:04:10;;;;;;;5.10;3.65;;;;;;;;;;6178494;23;20486;-78
2024/04/01 08:06:36;;;;;;;8.32;3.92;;;;;;;;;;6182413;23;20020;-82
2024/04/01 08:09:02;;;;;;;7.20;3.50;;;;;;;;;;6186599;23;20023;-81
2024/04/01 08:11:27;;;;;;;6.03;3.58;;;;;;;;;;6180092;23;20024;-81
2024/04/01 08:13:53;;;;;;;7.13;3.67;;;;;;;;;;6161435;23;20083;-80
2024/04/01 08:16:19;;;;;;;6.03;3.92;;;;;;;;;;6155029;23;20020;-82
2024/04/01 08:18:45;;;;;;;5.50;3.78;;;;;;;;;;6181802;23;20078;-80
2024/04/01 08:21:10;;;;;;;4.95;3.85;;;;;;;;;;6156237;23;20024;-81
2024/04/01 08:23:36;;;;;;;7.03;3.70;;;;;;;;;;6155181;23;20021;-82
2024/04/01 08:26:01;;;;;;;8.73;4.05;;;;;;;;;;6161649;23;20021;-82
2024/04/01 08:28:27;;;;;;;5.13;4.03;;;;;;;;;;6155365;23;20048;-83
2024/04/01 08:30:53;;;;;;;7.25;4.40;;;;;;;;;;6162023;23;20604;-83
2024/04/01 08:33:19;;;;;;;7.70;4.50;;;;;;;;;;6151683;23;20021;-82
2024/04/01 08:35:45;;;;;;;6.30;4.20;;;;;;;;;;6156220;23;20025;-82
2024/04/01 08:38:10;;;;;;;6.68;4.25;;;;;;;;;;6162546;23;20031;-82
2024/04/01 08:40:42;;;;;;;7.55;4.55;;;;;;;;;;6180652;23;20050;-81
2024/04/01 08:43:10;;;;;;;6.70;4.78;;;;;;;;;;6186468;23;20324;-81
2024/04/01 08:45:37;;;;;;;6.30;4.93;;;;;;;;;;6155864;23;20347;-80
2024/04/01 08:48:07;;;;;;;7.50;4.28;;;;;;;;;;6158016;23;20079;-83
2024/04/01 08:50:36;;;;;;;5.95;4.80;;;;;;;;;;6184589;23;20024;-78
2024/04/01 08:53:12;;;;;;;6.95;5.25;;;;;;;;;;6182971;23;20021;-79
2024/04/01 08:55:37;;;;;;;6.38;4.93;;;;;;;;;;6160126;23;20016;-79
2024/04/01 08:58:06;;;;;;;7.70;5.18;;;;;;;;;;6155601;23;20025;-78
2024/04/01 09:00:31;;;;;;;10.05;6.07;;;;;;;;;;6158167;23;20024;-79
2024/04/01 09:02:57;;;;;;;9.20;6.20;;;;;;;;;;6176643;23;20032;-79
2024/04/01 09:05:23;;;;;;;8.48;6.28;;;;;;;;;;6185652;23;20063;-79
2024/04/01 09:07:49;;;;;;;7.35;6.35;;;;;;;;;;6186160;23;20475;-80
2024/04/01 09:10:17;;;;;;;11.60;6.93;;;;;;;;;;6155123;23;20028;-81
2024/04/01 09:12:42;;;;;;;;;;;;;;;;;;6186789;23;20040;-80
2024/04/01 09:15:12;;;;;;;8.45;7.18;;;;;;;;;;6175009;23;20223;-80
2024/04/01 09:17:37;;;;;;;9.57;7.63;;;;;;;;;;6158844;23;20023;-78
2024/04/01 09:20:04;;;;;;;8.75;7.13;;;;;;;;;;6162341;23;20112;-80
2024/04/01 09:22:31;;;;;;;9.73;7.03;;;;;;;;;;6155577;23;20021;-80
2024/04/01 09:24:57;;;;;;;12.20;7.30;;;;;;;;;;6185648;23;20468;-80
2024/04/01 09:27:24;;;;;;;10.68;7.25;;;;;;;;;;6177062;23;20827;-80
2024/04/01 09:29:50;;;;;;;7.97;6.70;;;;;;;;;;6157702;23;20027;-80
2024/04/01 09:32:16;;;;;;;10.27;6.55;;;;;;;;;;6181967;23;20021;-78
2024/04/01 09:34:41;;;;;;;8.82;6.03;;;;;;;;;;6185842;23;20016;-77
2024/04/01 09:37:07;;;;;;;8.75;6.63;;;;;;;;;;6166764;23;20052;-78
2024/04/01 09:39:36;;;;;;;8.07;6.30;;;;;;;;;;6140680;23;20055;-78
2024/04/01 09:42:01;;;;;;;8.00;6.13;;;;;;;;;;6158105;23;20016;-78
2024/04/01 09:44:29;;;;;;;8.50;7.18;;;;;;;;;;6150374;23;20091;-79
2024/04/01 09:46:55;;;;;;;12.30;7.03;;;;;;;;;;6159773;23;20028;-79
2024/04/01 09:49:21;;;;;;;9.55;6.40;;;;;;;;;;6160564;23;20028;-80
2024/04/01 09:51:47;;;;;;;10.27;7.03;;;;;;;;;;6179076;23;20046;-79
2024/04/01 09:54:12;;;;;;;8.32;6.45;;;;;;;;;;6186423;23;20762;-78
2024/04/01 09:56:47;;;;;;;7.88;6.28;;;;;;;;;;6181951;23;20024;-79
2024/04/01 09:59:36;;;;;;;8.88;6.38;;;;;;;;;;6185811;23;20024;-78
2024/04/01 10:02:04;;;;;;;6.68;5.55;;;;;;;;;;6183950;23;20037;-77
2024/04/01 10:04:29;;;;;;;8.50;6.55;;;;;;;;;;6162397;23;20028;-78
2024/04/01 10:07:14;;;;;;;7.15;5.72;;;;;;;;;;6160704;23;20021;-78
2024/04/01 10:09:58;;;;;;;7.38;5.93;;;;;;;;;;6158912;23;20021;-78
2024/04/01 10:12:42;;;;;;;8.70;7.00;;;;;;;;;;6186131;23;20028;-79
2024/04/01 10:15:14;;;;;;;7.60;5.95;;;;;;;;;;6159097;23;20024;-78
2024/04/01 10:18:01;;;;;;;8.82;6.60;;;;;;;;;;6186024;23;20316;-78
2024/04/01 10:20:45;;;;;;;8.30;6.82;;;;;;;;;;6183685;23;20075;-78
2024/04/01 10:23:28;;;;;;;6.93;5.95;;;;;;;;;;6180464;23;20024;-80
2024/04/01 10:26:01;;;;;;;7.45;5.82;;;;;;;;;;6179285;23;20021;-77
2024/04/01 10:28:26;;;;;;;7.38;5.88;;;;;;;;;;6183690;23;20121;-79
2024/04/01 10:31:10;;;;;;;10.50;6.28;;;;;;;;;;6150996;23;20301;-77
2024/04/01 10:33:47;;;;;;;7.88;5.88;;;;;;;;;;6183515;23;20323;-77
2024/04/01 10:36:13;;;;;;;11.00;5.68;;;;;;;;;;6156594;23;20017;-78
2024/04/01 10:38:57;;;;;;;8.02;5.93;;;;;;;;;;6150968;23;20028;-77
2024/04/01 10:41:41;;;;;;;8.38;6.00;;;;;;;;;;6157353;23;20767;-76
2024/04/01 10:44:33;;;;;;;9.05;5.75;;;;;;;;;;6150178;23;20033;-78
2024/04/01 10:47:28;;;;;;;8.50;5.68;;;;;;;;;;6157950;23;20033;-77
2024/04/01 10:50:12;;;;;;;7.90;5.70;;;;;;;;;;6147211;23;20023;-77
2024/04/01 10:52:56;;;;;;;8.40;5.95;;;;;;;;;;6156338;23;20032;-79
2024/04/01 10:55:41;;;;;;;9.75;5.80;;;;;;;;;;6175493;23;20064;-79
2024/04/01 10:58:06;;;;;;;7.45;6.13;;;;;;;;;;6182737;23;20044;-81
2024/04/01 11:00:35;;;;;;;11.18;5.90;;;;;;;;;;6174034;23;20399;-80
2024/04/01 11:03:19;;;;;;;8.95;7.20;;;;;;;;;;6154574;23;20395;-79
2024/04/01 11:05:48;;;;;;;10.10;7.05;;;;;;;;;;6177882;23;20025;-78
2024/04/01 11:08:32;;;;;;;12.60;7.00;;;;;;;;;;6176087;23;20016;-78
2024/04/01 11:11:16;;;;;;;9.35;6.43;;;;;;;;;;6158801;23;20103;-81
2024/04/01 11:13:41;;;;;;;8.48;6.97;;;;;;;;;;6151418;23;20013;-78
2024/04/01 11:16:07;;;;;;;10.75;6.55;;;;;;;;;;6183540;23;20033;-77
2024/04/01 11:18:49;;;;;;;8.40;5.68;;;;;;;;;;6173420;23;20024;-78
2024/04/01 11:21:27;;;;;;;9.52;6.40;;;;;;;;;;6159172;23;20526;-78
2024/04/01 11:23:55;;;;;;;9.75;6.53;;;;;;;;;;6151609;23;20020;-78
2024/04/01 11:26:50;;;;;;;10.13;6.90;;;;;;;;;;6157463;23;20075;-77
2024/04/01 11:29:35;;;;;;;11.23;7.40;;;;;;;;;;6077705;23;20030;-77
2024/04/01 11:32:03;;;;;;;11.90;7.10;;;;;;;;;;6173953;23;20797;-78
2024/04/01 11:34:29;;;;;;;;;;;;;;;;;;6179935;23;20021;-78
2024/04/01 11:37:27;;;;;;;14.65;7.05;;;;;;;;;;6176674;23;20001;-77
2024/04/01 11:39:54;;;;;;;10.80;6.07;;;;;;;;;;6117768;23;20043;-77
2024/04/01 11:42:22;;;;;;;10.60;6.60;;;;;;;;;;6150978;23;20036;-77
2024/04/01 11:44:49;;;;;;;10.37;5.90;;;;;;;;;;6154750;23;20028;-77
2024/04/01 11:47:16;;;;;;;13.50;6.00;;;;;;;;;;6153169;23;20024;-77
2024/04/01 11:49:41;;;;;;;9.02;5.68;;;;;;;;;;6179245;23;20048;-81
2024/04/01 11:52:13;;;;;;;10.20;6.18;;;;;;;;;;6161147;23;20383;-78
2024/04/01 11:54:39;;;;;;;7.43;5.45;;;;;;;;;;6153347;23;20020;-78
2024/04/01 11:57:04;;;;;;;7.63;4.93;;;;;;;;;;6158866;23;20371;-78
2024/04/01 11:59:31;;;;;;;17.10;6.65;;;;;;;;;;6172697;23;20043;-76
2024/04/01 12:01:59;;;;;;;6.82;4.15;;;;;;;;;;6178379;23;20016;-77
2024/04/01 12:04:24;;;;;;;11.73;4.80;;;;;;;;;;6158250;23;20024;-78
2024/04/01 12:06:53;;;;;;;7.85;4.15;;;;;;;;;;6175653;23;20366;-80
2024/04/01 12:15:54;;;;;;;8.02;3.30;;;;;;;;;;6203306;23;20395;-78
2024/04/01 12:28:38;;;;;;;7.45;3.10;;;;;;;;;;6203633;23;20450;-78
2024/04/01 12:31:04;;;;;;;6.63;2.50;;;;;;;;;;6173344;23;20028;-79
2024/04/01 12:33:34;;;;;;;7.95;2.90;;;;;;;;;;6183373;23;20336;-79
2024/04/01 12:36:01;;;;;;;7.68;3.08;;;;;;;;;;6151713;23;20343;-78
2024/04/01 12:38:31;;;;;;;12.13;3.50;;;;;;;;;;6157620;23;20462;-78
2024/04/01 12:40:56;;;;;;;10.00;2.72;;;;;;;;;;6124377;23;20052;-73
2024/04/01 12:43:24;;;;;;;4.15;2.08;;;;;;;;;;6142330;23;20021;-76
2024/04/01 12:45:51;;;;;;;6.03;2.20;;;;;;;;;;6147201;23;20525;-75
2024/04/01 12:48:17;;;;;;;6.78;2.40;;;;;;;;;;6175598;23;20604;-72
2024/04/01 12:50:44;;;;;;;6.22;2.40;;;;;;;;;;6141646;23;20033;-72
2024/04/01 12:53:29;;;;;;;5.75;2.05;;;;;;;;;;6149274;23;20079;-71
2024/04/01 12:56:13;;;;;;;5.22;2.50;;;;;;;;;;6146256;23;20024;-72
2024/04/01 12:58:51;;;;;;;6.72;2.72;;;;;;;;;;6148978;23;20021;-72
2024/04/01 13:01:43;;;;;;;4.13;2.35;;;;;;;;;;6141049;23;20024;-73
2024/04/01 13:04:28;;;;;;;6.40;2.40;;;;;;;;;;6094178;23;20032;-73
2024/04/01 13:06:54;;;;;;;5.25;2.55;;;;;;;;;;6070193;23;20028;-73
2024/04/01 13:09:25;;;;;;;5.03;2.58;;;;;;;;;;6124733;23;20020;-73
2024/04/01 13:12:09;;;;;;;5.82;2.65;;;;;;;;;;6145007;23;20021;-73
2024/04/01 13:14:58;;;;;;;6.10;2.20;;;;;;;;;;6134205;23;20032;-72
2024/04/01 13:17:30;;;;;;;5.85;2.20;;;;;;;;;;6129159;23;20526;-74
2024/04/01 13:20:01;;;;;;;5.40;2.28;;;;;;;;;;6142970;23;20029;-72
2024/04/01 13:22:40;;;;;;;3.80;2.10;;;;;;;;;;6149805;23;20029;-73
2024/04/01 13:25:17;;;;;;;6.80;2.22;;;;;;;;;;6143469;23;20029;-78
2024/04/01 13:27:44;;;;;;;5.05;2.03;;;;;;;;;;6123613;23;20032;-76
2024/04/01 13:30:22;;;;;;;4.75;1.90;;;;;;;;;;6149301;23;20474;-74
2024/04/01 13:32:52;;;;;;;7.38;2.65;;;;;;;;;;6142574;23;20025;-74
2024/04/01 13:35:18;;;;;;;5.13;1.70;;;;;;;;;;6124720;23;20021;-74
2024/04/01 13:37:54;;;;;;;6.95;1.88;;;;;;;;;;6144257;23;20021;-73
2024/04/01 13:40:39;;;;;;;2.53;1.58;;;;;;;;;;6139398;23;20021;-74
2024/04/01 13:43:25;;;;;;;3.80;1.33;;;;;;;;;;6137447;23;20028;-72
2024/04/01 13:45:50;;;;;;;3.65;1.58;;;;;;;;;;6147433;23;20029;-74
2024/04/01 13:48:22;;;;;;;5.05;1.52;;;;;;;;;;6117994;23;20096;-74
2024/04/01 13:50:55;;;;;;;5.72;1.83;;;;;;;;;;6147080;23;20025;-73
2024/04/01 13:53:30;;;;;;;6.13;1.92;;;;;;;;;;6142806;23;20035;-73
2024/04/01 13:55:58;;;;;;;2.60;1.67;;;;;;;;;;6136139;23;20581;-73
2024/04/01 13:58:24;;;;;;;;;;;;;;;;;;6123735;23;20391;-73
2024/04/01 14:01:02;;;;;;;3.58;1.80;;;;;;;;;;6140761;23;19927;-72
2024/04/01 14:03:44;;;;;;;4.03;1.60;;;;;;;;;;6146780;23;20493;-72
2024/04/01 14:06:13;;;;;;;4.03;1.90;;;;;;;;;;6143153;23;20482;-71
2024/04/01 14:08:39;;;;;;;;;;;;;;;;;;6141804;23;20354;-72
2024/04/01 14:11:15;;;;;;;4.88;1.65;;;;;;;;;;6143319;23;19920;-73
2024/04/01 14:14:01;;;;;;;6.72;1.80;;;;;;;;;;6141906;23;20028;-73
2024/04/01 14:16:51;;;;;;;6.22;1.80;;;;;;;;;;6145408;23;20032;-76
2024/04/01 14:19:28;;;;;;;5.75;1.85;;;;;;;;;;6141290;23;20020;-75
2024/04/01 14:21:54;;;;;;;3.70;1.92;;;;;;;;;;6143806;23;20021;-76
2024/04/01 14:24:19;;;;;;;3.42;2.10;;;;;;;;;;6136402;23;20017;-75
2024/04/01 14:26:45;;;;;;;6.05;2.13;;;;;;;;;;6147545;23;20676;-75
2024/04/01 14:29:11;;;;;;;4.10;2.30;;;;;;;;;;6148765;23;20489;-77
2024/04/01 14:31:40;;;;;;;5.88;2.10;;;;;;;;;;6140892;23;20029;-73
2024/04/01 14:34:05;;;;;;;4.65;2.00;;;;;;;;;;6147421;23;20033;-75
2024/04/01 14:36:31;;;;;;;4.15;2.22;;;;;;;;;;6136436;23;20035;-77
2024/04/01 14:38:58;;;;;;;5.15;2.47;;;;;;;;;;6143950;23;20029;-78
2024/04/01 14:41:24;;;;;;;2.97;2.25;;;;;;;;;;6150349;23;20025;-78
2024/04/01 14:43:50;;;;;;;3.75;2.10;;;;;;;;;;6142397;23;20036;-79
2024/04/01 14:46:17;;;;;;;4.32;2.35;;;;;;;;;;6148693;23;20052;-77
2024/04/01 14:48:42;;;;;;;7.45;2.75;;;;;;;;;;6141815;23;20716;-76
2024/04/01 14:51:08;;;;;;;4.18;2.58;;;;;;;;;;6140317;23;20032;-76
2024/04/01 14:53:33;;;;;;;4.30;1.98;;;;;;;;;;6172531;23;20760;-77
2024/04/01 14:55:59;;;;;;;3.90;2.03;;;;;;;;;;6119112;23;20451;-79
2024/04/01 14:58:25;;;;;;;5.38;2.20;;;;;;;;;;6148154;23;20059;-81
2024/04/01 15:00:52;;;;;;;4.32;1.90;;;;;;;;;;6141845;23;20143;-78